Weather observations for the past three days for
Langley Air Force Base
Imperial (Metric)
Date Time (edt) Wind (mph) Vis. (mi.) Weather Sky Cond. Temperature (ºF) Relative Humidity Wind Chill (°F) Heat Index (°F) Pressure Precipitation (in)
Air Dwpt 6 hour altimeter (in) sea level (mb) 1 hr 3 hr 6 hr
Max. Min.
04 12:55 E 7 9.00 Fair CLR 89.4 77.7 69% 103 29.93 1014.1
04 11:55 NE 10 9.00 Fair CLR 93.2 76.6 59% 107 29.93 1014.1
04 10:55 W 9 9.00 Fair CLR 90.1 76.3 64% 102 29.93 1014.1
04 09:55 W 13 10.00 Fair CLR 87.4 75.6 68% 98 29.92 1013.8
04 08:55 SW 14 10.00 Fair CLR 85.3 75.2 72% 94 29.93 1014.1
04 07:55 SW 10 10.00 A Few Clouds FEW250 82.2 75 85.1 77.7 79% 89 29.93 1014.1
04 06:55 S 8 10.00 A Few Clouds FEW250 79.2 73.8 84% 83 29.93 1014.1
04 05:55 SW 5 10.00 A Few Clouds FEW250 78.8 73.6 84% 82 29.94 1014.5
04 04:55 Calm 10.00 A Few Clouds FEW250 78.1 72.5 83% 81 29.95 1014.8
04 03:55 E 14 10.00 Partly Cloudy SCT250 81.3 74.1 79% 87 29.95 1014.8
04 00:55 W 9 10.00 A Few Clouds FEW250 86 75.4 71% 95 29.95 1014.8
03 23:55 SW 8 10.00 A Few Clouds FEW250 86.2 76.5 73% 97 29.95 1014.8
03 22:55 SW 6 10.00 Partly Cloudy SCT250 86 77.9 77% 98 29.95 1014.8
03 21:55 Calm 10.00 A Few Clouds FEW250 84.6 78.4 82% 96 29.97 1015.5
03 20:55 Calm 10.00 A Few Clouds FEW250 87.1 78.1 75% 100 29.97 1015.5
03 19:55 SE 3 10.00 A Few Clouds FEW250 87.6 77.7 94.1 87.4 73% 101 29.94 1014.5
03 18:55 SE 6 10.00 Partly Cloudy SCT250 88.2 77 70% 100 29.93 1014.1
03 17:55 SE 5 10.00 Partly Cloudy SCT250 91.9 75.9 60% 104 29.93 1014.1
03 16:55 E 5 10.00 Partly Cloudy FEW050 SCT250 90 77.9 68% 104 29.94 1014.5
03 15:55 E 5 10.00 Partly Cloudy FEW050 SCT250 92.3 79.2 66% 110 29.96 1015.2
03 14:55 NW 5 10.00 A Few Clouds FEW060 FEW200 93.9 72.3 50% 102 29.98 1015.8
03 13:55 S 7 10.00 Partly Cloudy FEW025 SCT050 91 77.5 91 80.6 65% 105 29.99 1016.2
03 12:55 SE 5 10.00 Partly Cloudy SCT021 88.7 77.2 69% 101 30.02 1017.2
03 11:55 SE 5 10.00 Partly Cloudy SCT020 87.4 77.5 73% 100 30.03 1017.5
03 10:55 E 6 9.00 Partly Cloudy SCT014 84.6 76.8 78% 95 30.04 1017.9
03 09:55 NE 3 10.00 Overcast OVC010 82.9 77.5 84% 92 30.04 1017.9
03 08:55 SW 5 10.00 Mostly Cloudy BKN008 81.5 77.2 87% 89 30.03 1017.5
03 07:55 S 6 9.00 Mostly Cloudy BKN008 80.6 76.6 80.6 75.2 88% 87 30.03 1017.5
03 06:55 Calm 8.00 Mostly Cloudy BKN007 78.3 75.7 92% 81 30.02 1017.2
03 05:55 Calm 9.00 Mostly Cloudy BKN007 76.3 73.4 91% 77 30.01 1016.9
03 04:55 S 3 10.00 Fair CLR 76.6 74.1 92% 77 30 1016.5
03 03:55 SE 3 10.00 Fair CLR 76.5 73.6 91% 77 30 1016.5
03 02:55 Calm 10.00 A Few Clouds FEW250 78.3 74.3 88% 81 30.01 1016.9
03 01:55 SE 3 10.00 A Few Clouds FEW250 76.6 73.8 81.9 76.3 91% 77 30.02 1017.2
03 00:55 E 3 10.00 A Few Clouds FEW250 79.5 73.4 82% 83 30.02 1017.2
02 23:55 SE 3 10.00 Partly Cloudy SCT250 80.1 74.3 83% 85 30.02 1017.2
02 22:55 SE 6 10.00 Mostly Cloudy BKN250 80.4 74.3 82% 85 30.02 1017.2
02 21:55 E 6 10.00 Mostly Cloudy BKN250 79.5 73.4 82% 83 30.04 1017.9
02 20:55 E 9 10.00 Mostly Cloudy BKN250 81.7 72.5 74% 87 30.02 1017.2
02 19:55 W 5 10.00 Mostly Cloudy BKN250 80.8 72.9 88 80.8 77% 85 30.01 1016.9
02 18:55 S 7 10.00 Mostly Cloudy BKN230 81.9 72.3 73% 87 30.02 1017.2
02 17:55 E 9 10.00 Partly Cloudy FEW020 SCT200 83.5 73 71% 90 30.04 1017.9
02 16:55 NE 15 10.00 A Few Clouds FEW020 FEW200 86 74.5 69% 94 30.05 1018.2
02 15:55 NE 10 10.00 A Few Clouds FEW020 86.2 76.5 73% 97 30.05 1018.2
02 14:55 E 10 9.00 A Few Clouds FEW020 86.7 76.5 72% 98 30.05 1018.2
02 13:55 NE 12 9.00 Partly Cloudy FEW015 SCT020 87.6 76.5 90.5 81 70% 99 30.05 1018.2
02 12:55 NE 12 9.00 Partly Cloudy FEW014 SCT020 87.6 77.4 72% 100 30.04 1017.9
02 11:55 NE 10 9.00 A Few Clouds FEW020 88.3 76.3 68% 100 30.05 1018.2
02 10:55 N 8 10.00 Fair CLR 90.1 71.8 55% 97 30.04 1017.9
02 09:55 Calm 10.00 Fair CLR 87.1 74.7 67% 96 30.02 1017.2
02 08:55 NW 3 10.00 Fair CLR 84.4 75 74% 93 30.02 1017.2
02 07:55 Calm 10.00 A Few Clouds FEW150 80.8 75.4 82.2 77 84% 87 30.02 1017.2
02 06:55 SW 3 10.00 A Few Clouds FEW150 77.2 73.9 90% 79 30.01 1016.9
02 05:55 NE 7 10.00 A Few Clouds FEW080 78.3 73.9 87% 81 30.02 1017.2
02 04:55 SW 6 10.00 A Few Clouds FEW080 79.7 74.7 85% 84 29.99 1016.2
02 03:55 SW 8 10.00 Partly Cloudy SCT085 80.8 74.7 82% 86 29.99 1016.2
02 02:55 SW 8 10.00 A Few Clouds FEW085 81.3 74.8 81% 87 30 1016.5
02 01:55 SW 8 10.00 Fair CLR 82 74.8 85.8 81.9 79% 89 30 1016.5
02 00:55 S 8 10.00 A Few Clouds FEW250 82.9 74.8 77% 90 30.01 1016.8
01 23:55 S 8 10.00 A Few Clouds FEW250 84.2 74.5 73% 92 29.99 1016.2
01 22:55 SW 9 10.00 A Few Clouds FEW250 85.5 73.6 68% 93 29.99 1016.2
01 21:55 SW 6 10.00 A Few Clouds FEW250 85.5 73.6 68% 93 29.98 1015.8
01 20:55 S 3 10.00 Partly Cloudy SCT150 82 75.2 80% 89 29.96 1015.2
01 19:55 SE 5 10.00 Partly Cloudy SCT120 84.6 75.7 95.9 84.6 75% 94 29.95 1014.8
01 18:55 SE 6 10.00 Partly Cloudy SCT120 88.9 74.1 62% 98 29.97 1015.5
01 17:55 E 8 10.00 A Few Clouds FEW250 90.1 72.3 56% 98 29.97 1015.5
01 16:55 E 9 10.00 Partly Cloudy FEW060 SCT120 95.9 72.3 47% 105 29.98 1015.8
01 15:55 E 6 10.00 Mostly Cloudy SCT060 BKN250 94.8 70 45% 101 29.98 1015.8
01 14:55 E 6 10.00 A Few Clouds FEW050 FEW250 93.6 71.4 49% 101 29.99 1016.2
01 13:55 SE 8 10.00 A Few Clouds FEW050 FEW250 91.9 71.8 92.5 79.7 52% 99 30 1016.5
Date Time (edt) Wind (mph) Vis. (mi.) Weather Sky Cond. Air Dwpt Max. Min. Relative Humidity Wind Chill (°F) Heat Index (°F) altimeter (in) sea level (mb) 1 hr 3 hr 6 hr
6 hour
Temperature (ºF) Pressure Precipitation (in)